Go — WDG2469 — position and weather

sailwx.info

Track history (hours):
 
Tides and Currents Weather Stations Pressure Air Temp Water Temp Dewpoint Dewpoint Depression Visibility Wind Speed Wind Dir Waves Ship Positions

Go

Owner: Gittleman, Cindy, Stateline, NV. More information available from US FCC via Universal Licensing System and Coast Guard Vessel Documentation Center.

Last reported at 2018-May-11 17:23 UTC. Time now 2018-May-28 01:39 UTC.
Position N 20°40' W 105°18'.
Warning: this ship's position is 16 days out of date.

Length 40 m.

Type: Pleasure craft. MMSI: 367515960.

Date/timePositionNaut miles runAvg speedWind from/ knotsBaromVisibWave heightAir tempDewpointWater temp
2018-May-11 17:23N 20°40' W 105°18'1 2.6
2018-May-11 16:58N 20°41' W 105°17'0 0.0
2018-May-11 16:28N 20°41' W 105°17'0 0.0
2018-May-11 15:58N 20°41' W 105°17'0 0.0
2018-May-09 16:44N 20°41' W 105°17'1 4.8
2018-May-09 16:29N 20°42' W 105°19'510.0
2018-May-09 16:00N 20°43' W 105°24'2 0.1
2018-May-08 02:33N 20°43' W 105°26'110.1
2018-May-08 02:28N 20°43' W 105°25'4 9.5
2018-May-08 02:00N 20°42' W 105°20'3 0.7
2018-May-07 22:15N 20°41' W 105°17'0 0.0
2018-May-07 20:42N 20°41' W 105°17'0 0.0
2018-May-07 20:24N 20°41' W 105°17'0 0.0
2018-May-07 19:57N 20°41' W 105°17'0 0.0
2018-May-07 19:18N 20°41' W 105°17'  
Track history (hours):
 
Tides and Currents Weather Stations Pressure Air Temp Water Temp Dewpoint Dewpoint Depression Visibility Wind Speed Wind Dir Waves Ship Positions

Go

Owner: Gittleman, Cindy, Stateline, NV. More information available from US FCC via Universal Licensing System and Coast Guard Vessel Documentation Center.

Last reported at 2018-May-11 17:23 UTC. Time now 2018-May-28 01:39 UTC.
Position N 20°40' W 105°18'.
Warning: this ship's position is 16 days out of date.

Length 40 m.

Type: Pleasure craft. MMSI: 367515960.

Date/timePositionNaut miles runAvg speedWind from/ knotsBaromVisibWave heightAir tempDewpointWater temp
2018-May-11 17:23N 20°40' W 105°18'1 2.6
2018-May-11 16:58N 20°41' W 105°17'0 0.0
2018-May-11 16:28N 20°41' W 105°17'0 0.0
2018-May-11 15:58N 20°41' W 105°17'0 0.0
2018-May-09 16:44N 20°41' W 105°17'1 4.8
2018-May-09 16:29N 20°42' W 105°19'510.0
2018-May-09 16:00N 20°43' W 105°24'2 0.1
2018-May-08 02:33N 20°43' W 105°26'110.1
2018-May-08 02:28N 20°43' W 105°25'4 9.5
2018-May-08 02:00N 20°42' W 105°20'3 0.7
2018-May-07 22:15N 20°41' W 105°17'0 0.0
2018-May-07 20:42N 20°41' W 105°17'0 0.0
2018-May-07 20:24N 20°41' W 105°17'0 0.0
2018-May-07 19:57N 20°41' W 105°17'0 0.0
2018-May-07 19:18N 20°41' W 105°17'  

Dump ship's entire track history